createdAt,value
2019-05-20T00:01:27.425Z,11.00
2019-05-20T00:03:56.371Z,11.00
2019-05-20T00:06:25.265Z,11.00
2019-05-20T00:08:53.982Z,11.10
2019-05-20T00:11:22.844Z,11.10
2019-05-20T00:13:51.701Z,11.00
2019-05-20T00:16:20.627Z,11.00
2019-05-20T00:18:49.521Z,11.00
2019-05-20T00:21:18.398Z,11.00
2019-05-20T00:23:48.951Z,11.00
2019-05-20T00:26:17.911Z,11.00
2019-05-20T00:28:46.722Z,11.00
2019-05-20T00:31:15.826Z,11.00
2019-05-20T00:33:44.918Z,11.00
2019-05-20T00:36:13.780Z,11.00
2019-05-20T00:38:42.574Z,11.00
2019-05-20T00:41:11.361Z,10.90
2019-05-20T00:43:40.279Z,10.90
2019-05-20T00:46:10.699Z,10.90
2019-05-20T00:48:39.560Z,10.90
2019-05-20T00:51:08.382Z,10.90
2019-05-20T00:53:37.161Z,11.00
2019-05-20T00:56:06.180Z,11.00
2019-05-20T00:58:34.987Z,11.00
2019-05-20T01:01:03.832Z,11.10
2019-05-20T01:03:32.685Z,11.20
2019-05-20T01:06:01.626Z,11.20
2019-05-20T01:08:30.404Z,11.10
2019-05-20T01:10:59.527Z,11.00
2019-05-20T01:13:28.659Z,11.00
2019-05-20T01:15:57.515Z,11.10
2019-05-20T01:18:26.322Z,11.00
2019-05-20T01:20:56.600Z,11.10
2019-05-20T01:23:25.420Z,11.10
2019-05-20T01:25:54.517Z,11.20
2019-05-20T01:28:23.412Z,11.20
2019-05-20T01:30:52.244Z,11.10
2019-05-20T01:33:21.167Z,11.10
2019-05-20T01:35:50.062Z,11.10
2019-05-20T01:38:18.961Z,11.00
2019-05-20T01:40:47.869Z,11.00
2019-05-20T01:43:16.764Z,11.00
2019-05-20T01:45:45.639Z,10.90
2019-05-20T01:48:14.545Z,10.90
2019-05-20T01:50:44.234Z,11.00
2019-05-20T01:53:13.148Z,11.00
2019-05-20T01:55:42.025Z,11.00
2019-05-20T01:58:10.912Z,11.00
2019-05-20T02:00:39.827Z,11.00
2019-05-20T02:03:08.717Z,11.00
2019-05-20T02:05:37.689Z,10.90
2019-05-20T02:08:06.423Z,10.90
2019-05-20T02:10:35.332Z,10.90
2019-05-20T02:13:04.218Z,10.90
2019-05-20T02:15:47.096Z,10.90
2019-05-20T02:18:15.994Z,10.80
2019-05-20T02:20:44.762Z,10.80
2019-05-20T02:23:15.114Z,10.80
2019-05-20T02:25:49.416Z,10.80
2019-05-20T02:28:18.319Z,10.70
2019-05-20T02:30:47.114Z,10.90
2019-05-20T02:33:15.976Z,10.80
2019-05-20T02:35:45.082Z,10.80
2019-05-20T02:38:13.872Z,10.80
2019-05-20T02:40:42.658Z,10.80
2019-05-20T02:43:11.748Z,10.60
2019-05-20T02:45:43.577Z,10.60
2019-05-20T02:48:12.534Z,10.70
2019-05-20T02:50:41.294Z,10.70
2019-05-20T02:53:10.304Z,10.80
2019-05-20T02:55:39.415Z,10.70
2019-05-20T02:58:08.276Z,10.60
2019-05-20T03:00:37.063Z,10.60
2019-05-20T03:03:05.879Z,10.70
2019-05-20T03:05:34.658Z,10.70
2019-05-20T03:08:03.597Z,10.60
2019-05-20T03:10:32.351Z,10.50
2019-05-20T03:13:01.304Z,10.50
2019-05-20T03:15:30.235Z,10.50
2019-05-20T03:17:59.527Z,10.60
2019-05-20T03:20:28.385Z,10.60
2019-05-20T03:22:57.436Z,10.60
2019-05-20T03:25:26.521Z,10.40
2019-05-20T03:27:55.415Z,10.30
2019-05-20T03:30:24.171Z,10.20
2019-05-20T03:32:53.196Z,10.20
2019-05-20T03:35:22.189Z,10.20
2019-05-20T03:37:50.996Z,10.20
2019-05-20T03:40:20.074Z,10.10
2019-05-20T03:42:48.787Z,10.10
2019-05-20T03:45:19.296Z,10.10
2019-05-20T03:47:48.186Z,10.10
2019-05-20T03:50:17.050Z,10.10
2019-05-20T03:52:45.797Z,10.10
2019-05-20T03:55:14.543Z,10.20
2019-05-20T03:57:43.550Z,10.40
2019-05-20T04:00:12.823Z,10.60
2019-05-20T04:02:41.585Z,10.70
2019-05-20T04:05:10.373Z,10.90
2019-05-20T04:07:39.297Z,10.90
2019-05-20T04:10:08.277Z,11.00
2019-05-20T04:12:37.077Z,11.00
2019-05-20T04:15:06.884Z,11.00
2019-05-20T04:17:35.700Z,11.10
2019-05-20T04:20:06.549Z,11.20
2019-05-20T04:22:35.442Z,11.30
2019-05-20T04:25:05.986Z,11.30
2019-05-20T04:27:34.812Z,11.40
2019-05-20T04:30:04.337Z,11.50
2019-05-20T04:32:33.116Z,11.60
2019-05-20T04:35:20.552Z,11.70
2019-05-20T04:37:34.049Z,11.80
2019-05-20T04:40:03.011Z,11.80
2019-05-20T04:42:31.810Z,11.90
2019-05-20T04:45:03.096Z,11.90
2019-05-20T04:47:31.798Z,12.00
2019-05-20T04:50:00.693Z,12.00
2019-05-20T04:52:29.519Z,11.90
2019-05-20T04:54:58.230Z,12.00
2019-05-20T04:57:26.964Z,12.00
2019-05-20T04:59:55.705Z,12.00
2019-05-20T05:02:24.610Z,12.00
2019-05-20T05:04:53.422Z,12.10
2019-05-20T05:07:26.862Z,12.10
2019-05-20T05:09:55.647Z,12.10
2019-05-20T05:12:24.366Z,12.10
2019-05-20T05:14:53.209Z,12.10
2019-05-20T05:17:22.090Z,12.10
2019-05-20T05:19:51.200Z,12.10
2019-05-20T05:22:20.107Z,12.10
2019-05-20T05:24:48.853Z,12.10
2019-05-20T05:27:17.636Z,12.20
2019-05-20T05:29:47.009Z,12.20
2019-05-20T05:32:17.616Z,12.30
2019-05-20T05:34:46.343Z,12.30
2019-05-20T05:37:15.265Z,12.50
2019-05-20T05:39:44.055Z,12.80
2019-05-20T05:42:13.997Z,13.00
2019-05-20T05:44:42.792Z,13.30
2019-05-20T05:47:11.798Z,13.40
2019-05-20T05:49:40.538Z,13.80
2019-05-20T05:52:09.684Z,13.50
2019-05-20T05:54:38.849Z,13.50
2019-05-20T05:57:07.872Z,13.50
2019-05-20T05:59:36.667Z,13.40
2019-05-20T06:02:05.459Z,13.50
2019-05-20T06:04:34.322Z,13.60
2019-05-20T06:07:03.144Z,13.60
2019-05-20T06:09:32.000Z,13.70
2019-05-20T06:12:00.886Z,13.80
2019-05-20T06:14:29.603Z,13.90
2019-05-20T06:16:58.463Z,13.90
2019-05-20T06:19:27.199Z,13.90
2019-05-20T06:21:56.051Z,13.90
2019-05-20T06:24:24.966Z,13.90
2019-05-20T06:26:54.082Z,13.90
2019-05-20T06:29:22.856Z,13.90
2019-05-20T06:31:51.633Z,14.00
2019-05-20T06:34:20.504Z,14.10
2019-05-20T06:36:54.414Z,14.20
2019-05-20T06:39:23.151Z,14.30
2019-05-20T06:41:51.927Z,14.40
2019-05-20T06:44:20.753Z,14.30
2019-05-20T06:46:49.577Z,14.50
2019-05-20T06:49:18.307Z,14.60
2019-05-20T06:51:47.131Z,14.80
2019-05-20T06:54:15.933Z,14.90
2019-05-20T06:56:44.930Z,15.20
2019-05-20T06:59:13.742Z,15.60
2019-05-20T07:01:42.920Z,16.20
2019-05-20T07:04:12.045Z,16.50
2019-05-20T07:06:46.482Z,16.30
2019-05-20T07:09:11.577Z,16.10
2019-05-20T07:11:40.468Z,15.80
2019-05-20T07:14:09.223Z,15.70
2019-05-20T07:16:38.083Z,15.90
2019-05-20T07:19:06.834Z,16.20
2019-05-20T07:21:35.831Z,15.90
2019-05-20T07:24:04.899Z,15.90
2019-05-20T07:26:33.818Z,15.80
2019-05-20T07:29:02.710Z,15.90
2019-05-20T07:31:31.566Z,16.10
2019-05-20T07:34:00.363Z,16.40
2019-05-20T07:36:29.236Z,16.90
2019-05-20T07:38:58.533Z,17.30
2019-05-20T07:41:27.586Z,17.60
2019-05-20T07:43:56.580Z,17.80
2019-05-20T07:46:25.533Z,17.60
2019-05-20T07:48:54.343Z,17.00
2019-05-20T07:51:24.138Z,16.80
2019-05-20T07:53:53.467Z,16.70
2019-05-20T07:56:28.098Z,16.60
2019-05-20T07:58:59.875Z,16.70
2019-05-20T08:01:28.761Z,16.60
2019-05-20T08:03:57.629Z,16.40
2019-05-20T08:06:26.609Z,16.40
2019-05-20T08:08:55.394Z,16.20
2019-05-20T08:11:24.180Z,16.20
2019-05-20T08:13:52.990Z,16.20
2019-05-20T08:16:21.838Z,16.30
2019-05-20T08:18:50.649Z,16.40
2019-05-20T08:21:19.542Z,16.30
2019-05-20T08:23:50.282Z,16.20
2019-05-20T08:26:18.900Z,16.10
2019-05-20T08:28:47.667Z,16.10
2019-05-20T08:31:16.640Z,15.80
2019-05-20T08:33:45.560Z,15.60
2019-05-20T08:36:14.599Z,15.40
2019-05-20T08:38:43.582Z,15.30
2019-05-20T08:41:12.457Z,15.30
2019-05-20T08:43:41.553Z,15.20
2019-05-20T08:46:10.580Z,15.20
2019-05-20T08:48:39.546Z,15.30
2019-05-20T08:51:08.325Z,15.30
2019-05-20T08:53:37.189Z,15.10
2019-05-20T08:56:06.004Z,15.00
2019-05-20T08:58:34.730Z,14.90
2019-05-20T09:01:03.903Z,15.00
2019-05-20T09:03:32.855Z,15.00
2019-05-20T09:06:01.746Z,15.00
2019-05-20T09:08:30.786Z,15.00
2019-05-20T09:10:59.757Z,15.10
2019-05-20T09:13:30.344Z,15.10
2019-05-20T09:15:59.367Z,15.10
2019-05-20T09:18:28.261Z,15.00
2019-05-20T09:20:57.189Z,15.00
2019-05-20T09:23:26.458Z,15.00
2019-05-20T09:25:55.353Z,15.00
2019-05-20T09:28:24.300Z,15.00
2019-05-20T09:30:53.882Z,15.10
2019-05-20T09:33:22.877Z,15.20
2019-05-20T09:35:51.687Z,15.30
2019-05-20T09:38:21.451Z,15.40
2019-05-20T09:40:51.055Z,15.50
2019-05-20T09:43:20.181Z,15.60
2019-05-20T09:46:05.655Z,15.60
2019-05-20T09:48:19.483Z,15.50
2019-05-20T09:50:48.702Z,15.50
2019-05-20T09:53:17.947Z,15.50
2019-05-20T09:55:47.973Z,15.60
2019-05-20T09:58:17.030Z,15.70
2019-05-20T10:00:47.490Z,15.90
2019-05-20T10:03:16.641Z,15.80
2019-05-20T10:05:45.368Z,15.90
2019-05-20T10:08:14.431Z,16.00
2019-05-20T10:10:43.125Z,16.20
2019-05-20T10:13:11.999Z,16.30
2019-05-20T10:15:41.306Z,16.20
2019-05-20T10:18:10.197Z,16.30
2019-05-20T10:20:38.945Z,16.10
2019-05-20T10:23:07.810Z,16.00
2019-05-20T10:25:36.876Z,16.00
2019-05-20T10:28:05.925Z,15.80
2019-05-20T10:30:34.913Z,15.90
2019-05-20T10:33:09.890Z,15.80
2019-05-20T10:35:34.116Z,15.80
2019-05-20T10:38:03.046Z,15.90
2019-05-20T10:40:32.029Z,15.80
2019-05-20T10:43:01.065Z,15.70
2019-05-20T10:45:29.975Z,15.70
2019-05-20T10:47:58.809Z,15.50
2019-05-20T10:50:27.853Z,15.50
2019-05-20T10:52:56.702Z,15.50
2019-05-20T10:55:25.648Z,15.60
2019-05-20T10:57:54.577Z,15.50
2019-05-20T11:00:23.848Z,15.60
2019-05-20T11:02:54.431Z,15.60
2019-05-20T11:05:23.471Z,15.60
2019-05-20T11:07:52.530Z,15.50
2019-05-20T11:10:21.817Z,15.50
2019-05-20T11:12:50.704Z,15.50
2019-05-20T11:15:19.559Z,15.50
2019-05-20T11:17:48.520Z,15.50
2019-05-20T11:20:17.619Z,15.50
2019-05-20T11:22:47.276Z,15.70
2019-05-20T11:25:16.417Z,15.70
2019-05-20T11:27:46.859Z,15.70
2019-05-20T11:30:16.048Z,15.80
2019-05-20T11:32:45.129Z,16.00
2019-05-20T11:35:14.176Z,16.00
2019-05-20T11:37:43.138Z,16.20
2019-05-20T11:40:14.050Z,16.20
2019-05-20T11:42:43.236Z,16.30
2019-05-20T11:45:14.318Z,16.40
2019-05-20T11:47:45.252Z,16.60
2019-05-20T11:50:14.312Z,16.70
2019-05-20T11:52:43.250Z,16.50
2019-05-20T11:55:12.226Z,16.50
2019-05-20T11:57:41.117Z,16.50
2019-05-20T12:00:12.198Z,16.70
2019-05-20T12:02:40.949Z,16.60
2019-05-20T12:05:10.782Z,16.60
2019-05-20T12:07:39.570Z,16.70
2019-05-20T12:10:09.504Z,16.70
2019-05-20T12:12:38.478Z,16.90
2019-05-20T12:15:08.872Z,17.00
2019-05-20T12:17:38.676Z,17.20
2019-05-20T12:20:11.965Z,17.40
2019-05-20T12:22:41.424Z,17.30
2019-05-20T12:25:10.689Z,16.90
2019-05-20T12:27:40.026Z,16.90
2019-05-20T12:30:09.639Z,16.70
2019-05-20T12:32:38.504Z,16.50
2019-05-20T12:35:08.008Z,16.50
2019-05-20T12:37:37.027Z,16.50
2019-05-20T12:40:08.143Z,16.60
2019-05-20T12:42:37.460Z,16.60
2019-05-20T12:45:07.942Z,16.70
2019-05-20T12:47:36.675Z,16.80
2019-05-20T12:50:06.643Z,16.90
2019-05-20T12:52:35.402Z,17.00
2019-05-20T12:55:08.649Z,17.10
2019-05-20T12:57:36.050Z,17.10
2019-05-20T13:00:12.414Z,17.20
2019-05-20T13:02:43.350Z,17.10
2019-05-20T13:05:12.897Z,17.20
2019-05-20T13:07:41.721Z,17.20
2019-05-20T13:10:27.609Z,17.00
2019-05-20T13:12:42.002Z,17.00
2019-05-20T13:15:12.329Z,17.10
2019-05-20T13:17:44.621Z,17.10
2019-05-20T13:20:11.980Z,17.00
2019-05-20T13:22:41.047Z,17.00
2019-05-20T13:25:09.987Z,17.30
2019-05-20T13:27:38.824Z,17.30
2019-05-20T13:30:10.066Z,17.20
2019-05-20T13:32:39.067Z,17.30
2019-05-20T13:35:09.282Z,17.10
2019-05-20T13:37:38.144Z,17.10
2019-05-20T13:40:08.000Z,17.20
2019-05-20T13:42:37.672Z,17.20
2019-05-20T13:45:07.289Z,17.20
2019-05-20T13:47:36.309Z,17.40
2019-05-20T13:50:07.635Z,17.50
2019-05-20T13:56:56.660Z,17.50
2019-05-20T13:59:25.532Z,17.40
2019-05-20T14:01:54.588Z,17.50
2019-05-20T14:04:23.299Z,17.60
2019-05-20T14:06:52.604Z,17.60
2019-05-20T14:09:21.520Z,17.70
2019-05-20T14:11:50.412Z,17.60
2019-05-20T14:14:19.305Z,17.40
2019-05-20T14:16:48.185Z,17.30
2019-05-20T14:19:22.391Z,17.10
2019-05-20T14:21:49.056Z,17.10
2019-05-20T14:24:18.029Z,17.00
2019-05-20T14:26:47.040Z,16.90
2019-05-20T14:29:15.877Z,16.80
2019-05-20T14:31:44.823Z,16.70
2019-05-20T14:34:13.715Z,16.50
2019-05-20T14:36:42.885Z,16.40
2019-05-20T14:39:11.707Z,16.40
2019-05-20T14:41:40.601Z,16.30
2019-05-20T14:44:09.696Z,16.20
2019-05-20T14:46:38.794Z,16.10
2019-05-20T14:49:07.694Z,16.00
2019-05-20T14:51:39.843Z,15.90
2019-05-20T14:54:08.653Z,15.80
2019-05-20T14:56:37.637Z,15.60
2019-05-20T14:59:06.409Z,15.50
2019-05-20T15:01:35.300Z,15.50
2019-05-20T15:04:04.222Z,15.50
2019-05-20T15:06:35.317Z,15.50
2019-05-20T15:09:06.943Z,15.40
2019-05-20T15:11:38.477Z,15.20
2019-05-20T15:14:07.873Z,15.10
2019-05-20T15:16:42.902Z,15.00
2019-05-20T15:19:07.294Z,15.00
2019-05-20T15:21:36.391Z,14.90
2019-05-20T15:24:05.350Z,14.90
2019-05-20T15:26:34.375Z,14.90
2019-05-20T15:29:04.177Z,15.00
2019-05-20T15:31:33.804Z,15.00
2019-05-20T15:34:02.837Z,15.00
2019-05-20T15:36:31.788Z,15.00
2019-05-20T15:39:01.226Z,15.10
2019-05-20T15:41:30.483Z,15.00
2019-05-20T15:44:01.352Z,15.00
2019-05-20T15:46:30.119Z,15.00
2019-05-20T15:48:59.015Z,15.00
2019-05-20T15:51:28.110Z,14.80
2019-05-20T15:53:56.993Z,14.70
2019-05-20T15:56:25.893Z,14.70
2019-05-20T15:58:54.787Z,14.60
2019-05-20T16:01:23.649Z,14.50
2019-05-20T16:03:52.569Z,14.50
2019-05-20T16:06:21.441Z,14.50
2019-05-20T16:08:50.445Z,14.40
2019-05-20T16:11:19.314Z,14.40
2019-05-20T16:13:48.339Z,14.40
2019-05-20T16:16:17.641Z,14.20
2019-05-20T16:18:46.536Z,14.00
2019-05-20T16:21:15.271Z,13.80
2019-05-20T16:23:44.525Z,13.70
2019-05-20T16:26:13.417Z,13.60
2019-05-20T16:28:42.308Z,13.50
2019-05-20T16:31:11.042Z,13.50
2019-05-20T16:33:39.999Z,13.40
2019-05-20T16:36:09.194Z,13.40
2019-05-20T16:38:38.048Z,13.30
2019-05-20T16:41:07.214Z,13.30
2019-05-20T16:43:36.128Z,13.20
2019-05-20T16:46:05.876Z,13.20
2019-05-20T16:48:34.711Z,13.10
2019-05-20T16:51:03.466Z,13.10
2019-05-20T16:53:32.656Z,13.10
2019-05-20T16:56:01.588Z,13.10
2019-05-20T16:58:30.407Z,13.10
2019-05-20T17:00:59.333Z,13.00
2019-05-20T17:03:28.096Z,13.00
2019-05-20T17:05:57.120Z,13.00
2019-05-20T17:08:26.013Z,13.00
2019-05-20T17:10:54.928Z,12.90
2019-05-20T17:13:23.898Z,12.90
2019-05-20T17:15:53.103Z,13.00
2019-05-20T17:18:22.063Z,12.90
2019-05-20T17:20:51.071Z,12.90
2019-05-20T17:23:20.182Z,12.90
2019-05-20T17:25:50.781Z,12.90
2019-05-20T17:28:20.138Z,12.80
2019-05-20T17:30:49.328Z,12.80
2019-05-20T17:33:18.301Z,12.80
2019-05-20T17:35:47.412Z,12.80
2019-05-20T17:38:16.510Z,12.80
2019-05-20T17:40:47.038Z,12.70
2019-05-20T17:43:16.072Z,12.70
2019-05-20T17:45:44.997Z,12.70
2019-05-20T17:48:14.994Z,12.70
2019-05-20T17:50:44.240Z,12.70
2019-05-20T17:53:13.343Z,12.70
2019-05-20T17:55:42.642Z,12.70
2019-05-20T17:58:11.939Z,12.70
2019-05-20T18:00:41.256Z,12.70
2019-05-20T18:03:10.340Z,12.60
2019-05-20T18:05:39.748Z,12.60
2019-05-20T18:08:08.945Z,12.60
2019-05-20T18:10:38.452Z,12.60
2019-05-20T18:13:07.851Z,12.60
2019-05-20T18:15:36.846Z,12.60
2019-05-20T18:18:05.694Z,12.60
2019-05-20T18:20:34.923Z,12.50
2019-05-20T18:23:03.936Z,12.50
2019-05-20T18:25:33.031Z,12.50
2019-05-20T18:28:02.157Z,12.50
2019-05-20T18:30:31.223Z,12.40
2019-05-20T18:33:00.320Z,12.40
2019-05-20T18:35:30.009Z,12.40
2019-05-20T18:37:59.331Z,12.40
2019-05-20T18:40:28.428Z,12.40
2019-05-20T18:42:57.523Z,12.40
2019-05-20T18:45:26.800Z,12.40
2019-05-20T18:47:58.585Z,12.30
2019-05-20T18:50:27.786Z,12.30
2019-05-20T18:52:56.886Z,12.30
2019-05-20T18:55:26.079Z,12.40
2019-05-20T18:57:55.288Z,12.30
2019-05-20T19:00:24.947Z,12.30
2019-05-20T19:02:54.100Z,12.30
2019-05-20T19:05:22.905Z,12.30
2019-05-20T19:07:52.091Z,12.40
2019-05-20T19:10:21.161Z,12.40
2019-05-20T19:12:50.681Z,12.40
2019-05-20T19:15:19.813Z,12.40
2019-05-20T19:17:48.882Z,12.30
2019-05-20T19:20:18.176Z,12.40
2019-05-20T19:22:48.507Z,12.40
2019-05-20T19:25:17.625Z,12.40
2019-05-20T19:27:46.456Z,12.40
2019-05-20T19:30:15.834Z,12.40
2019-05-20T19:32:44.757Z,12.40
2019-05-20T19:35:13.589Z,12.40
2019-05-20T19:37:42.507Z,12.40
2019-05-20T19:40:11.870Z,12.40
2019-05-20T19:42:40.722Z,12.40
2019-05-20T19:45:09.852Z,12.40
2019-05-20T19:47:39.125Z,12.40
2019-05-20T19:50:09.399Z,12.40
2019-05-20T19:52:38.205Z,12.40
2019-05-20T19:55:09.015Z,12.40
2019-05-20T19:57:37.762Z,12.50
2019-05-20T20:00:08.639Z,12.50
2019-05-20T20:02:37.485Z,12.50
2019-05-20T20:05:08.273Z,12.50
2019-05-20T20:07:37.157Z,12.50
2019-05-20T20:10:09.127Z,12.50
2019-05-20T20:12:38.015Z,12.50
2019-05-20T20:15:07.598Z,12.50
2019-05-20T20:17:36.486Z,12.50
2019-05-20T20:20:06.823Z,12.50
2019-05-20T20:22:35.861Z,12.50
2019-05-20T20:25:06.292Z,12.50
2019-05-20T20:27:35.463Z,12.50
2019-05-20T20:30:08.042Z,12.50
2019-05-20T20:32:38.665Z,12.50
2019-05-20T20:35:08.286Z,12.50
2019-05-20T20:37:37.171Z,12.60
2019-05-20T20:40:06.226Z,12.60
2019-05-20T20:42:35.169Z,12.60
2019-05-20T20:45:04.675Z,12.60
2019-05-20T20:47:41.173Z,12.60
2019-05-20T20:50:05.152Z,12.60
2019-05-20T20:52:34.024Z,12.60
2019-05-20T20:55:03.071Z,12.70
2019-05-20T20:57:31.981Z,12.70
2019-05-20T21:00:01.126Z,12.70
2019-05-20T21:02:29.992Z,12.70
2019-05-20T21:04:59.063Z,12.70
2019-05-20T21:07:27.961Z,12.70
2019-05-20T21:09:56.862Z,12.70
2019-05-20T21:12:25.628Z,12.70
2019-05-20T21:14:54.651Z,12.70
2019-05-20T21:17:23.543Z,12.80
2019-05-20T21:19:52.253Z,12.80
2019-05-20T21:22:21.203Z,12.80
2019-05-20T21:24:50.015Z,12.80
2019-05-20T21:27:18.767Z,12.80
2019-05-20T21:29:47.793Z,12.80
2019-05-20T21:32:16.696Z,12.80
2019-05-20T21:34:45.504Z,12.80
2019-05-20T21:37:14.469Z,12.80
2019-05-20T21:39:43.198Z,12.80
2019-05-20T21:42:12.150Z,12.80
2019-05-20T21:44:41.048Z,12.80
2019-05-20T21:47:10.911Z,12.80
2019-05-20T21:49:39.855Z,12.80
2019-05-20T21:52:10.152Z,12.80
2019-05-20T21:54:39.063Z,12.80
2019-05-20T21:57:07.928Z,12.80
2019-05-20T21:59:37.984Z,12.80
2019-05-20T22:02:06.976Z,12.80
2019-05-20T22:04:36.077Z,12.80
2019-05-20T22:07:05.080Z,12.80
2019-05-20T22:09:34.959Z,12.80
2019-05-20T22:12:03.730Z,12.80
2019-05-20T22:14:32.607Z,12.80
2019-05-20T22:17:01.563Z,12.80
2019-05-20T22:19:30.451Z,12.80
2019-05-20T22:22:00.891Z,12.80
2019-05-20T22:24:29.748Z,12.80
2019-05-20T22:26:58.545Z,12.80
2019-05-20T22:29:27.430Z,12.80
2019-05-20T22:31:56.240Z,12.80
2019-05-20T22:34:25.127Z,12.80
2019-05-20T22:36:53.991Z,12.80
2019-05-20T22:39:23.009Z,12.80
2019-05-20T22:41:51.807Z,12.80
2019-05-20T22:44:20.659Z,12.80
2019-05-20T22:46:49.436Z,12.80
2019-05-20T22:49:18.254Z,12.80
2019-05-20T22:51:47.169Z,12.80
2019-05-20T22:54:16.502Z,12.80
2019-05-20T22:56:45.472Z,12.80
2019-05-20T22:59:14.464Z,12.80
2019-05-20T23:01:43.352Z,12.80
2019-05-20T23:04:12.315Z,12.80
2019-05-20T23:06:41.442Z,12.80
2019-05-20T23:09:10.999Z,12.80
2019-05-20T23:11:40.232Z,12.80
2019-05-20T23:14:09.358Z,12.80
2019-05-20T23:16:38.237Z,12.80
2019-05-20T23:19:07.064Z,12.80
2019-05-20T23:21:35.897Z,12.80
2019-05-20T23:24:04.708Z,12.80
2019-05-20T23:26:33.518Z,12.80
2019-05-20T23:29:02.498Z,12.90
2019-05-20T23:31:31.465Z,12.90
2019-05-20T23:34:12.354Z,12.80
2019-05-20T23:36:30.810Z,12.90
2019-05-20T23:38:59.699Z,12.90
2019-05-20T23:41:28.662Z,12.90
2019-05-20T23:43:57.689Z,12.90
2019-05-20T23:46:26.581Z,12.90
2019-05-20T23:48:55.477Z,12.90
2019-05-20T23:51:26.175Z,12.90
2019-05-20T23:53:55.286Z,12.90
2019-05-20T23:56:24.198Z,12.90
2019-05-20T23:58:53.086Z,12.90
